»·PEaware :: N1004E KSNA-KCRQ

N1004E :: KSNA-KCRQ

FLIGHT INFORMATION

Flight Status: Arrived
Operator: Privately registered:
United States
More flights under this callsign
Pilot: Lance W. (24701)
Aircraft: CESSNA T210 TURBO CENTURION
(T210)
More flights by this aircraft type
Origin: KSNA John Wayne-Orange Co
United States
Destination: KCRQ McClellan-Palomar
United States
More flights between these airports :: More routes between these airports
Route: +V23 OCN
File this flight plan on PilotEdge
Remarks:
Altitude:
(Current/Filed)
4,000ft
Speed:
(Current/Filed)
150kts
Departed: 07-Feb-20 10:45 PM
Arrived: 07-Feb-20 11:21 PM
Distance/Time
Traveled:
44nm/0:36
Distance/Time
To Go:
Arrived

Flight Plot

Page will automatically refresh every two minutes.


Map Options




Map Legend


Flown Route
Filed Route
Departure Airport
Arrival Airport
Navaid (VOR, NDB)
Fix

Horizontal Profiles

Position Reports

Time Latitude Longitude Heading Altitude Ground
Speed
07-Feb-20 22:31 33.677335 -117.871137 208 60ft 0kts
07-Feb-20 22:32 33.677335 -117.871137 208 60ft 0kts
07-Feb-20 22:33 33.677335 -117.871137 208 60ft 0kts
07-Feb-20 22:34 33.677335 -117.871137 208 60ft 0kts
07-Feb-20 22:35 33.677335 -117.871137 208 60ft 0kts
07-Feb-20 22:36 33.677335 -117.871137 208 60ft 0kts
07-Feb-20 22:37 33.677335 -117.871137 208 60ft 0kts
07-Feb-20 22:38 33.677335 -117.871137 208 60ft 0kts
07-Feb-20 22:39 33.676415 -117.870678 120 60ft 11kts
07-Feb-20 22:40 33.678203 -117.868748 26 60ft 8kts
07-Feb-20 22:41 33.681209 -117.866811 75 60ft 13kts
07-Feb-20 22:42 33.681223 -117.866716 83 60ft 0kts
07-Feb-20 22:43 33.681223 -117.866716 83 60ft 0kts
07-Feb-20 22:44 33.672817 -117.872030 219 509ft 74kts
07-Feb-20 22:45 33.647508 -117.879744 184 1489ft 104kts
07-Feb-20 22:46 33.618280 -117.882762 184 2325ft 106kts
07-Feb-20 22:47 33.591531 -117.876597 114 3156ft 108kts
07-Feb-20 22:48 33.581499 -117.842543 108 3988ft 109kts
07-Feb-20 22:49 33.563736 -117.813619 136 4816ft 110kts
07-Feb-20 22:50 33.545870 -117.777845 113 5002ft 140kts
07-Feb-20 22:51 33.520572 -117.742675 134 5000ft 142kts
07-Feb-20 22:52 33.492765 -117.708864 134 4999ft 143kts
07-Feb-20 22:53 33.464286 -117.675626 135 4999ft 143kts
07-Feb-20 22:54 33.435291 -117.641974 135 5002ft 150kts
07-Feb-20 22:55 33.401270 -117.602535 135 5001ft 182kts
07-Feb-20 22:56 33.364431 -117.559988 135 5000ft 185kts
07-Feb-20 22:57 33.327349 -117.517180 135 5000ft 185kts
07-Feb-20 22:58 33.290244 -117.474386 135 4999ft 185kts
07-Feb-20 22:59 33.253252 -117.431772 135 4999ft 185kts
07-Feb-20 23:00 33.238281 -117.375348 95 4996ft 179kts
07-Feb-20 23:01 33.233405 -117.324720 96 4997ft 152kts
07-Feb-20 23:02 33.228396 -117.275517 98 4999ft 147kts
07-Feb-20 23:03 33.221853 -117.227288 99 4999ft 147kts
07-Feb-20 23:04 33.214495 -117.179332 100 4999ft 147kts
07-Feb-20 23:05 33.206758 -117.128923 100 4485ft 165kts
07-Feb-20 23:06 33.191064 -117.082275 151 3767ft 153kts
07-Feb-20 23:07 33.150358 -117.086244 192 3029ft 148kts
07-Feb-20 23:08 33.110434 -117.097779 193 2308ft 147kts
07-Feb-20 23:09 33.078852 -117.094857 117 2584ft 113kts
07-Feb-20 23:10 33.065983 -117.061926 114 3332ft 124kts
07-Feb-20 23:11 33.053782 -117.018131 67 3304ft 152kts
07-Feb-20 23:12 33.091376 -116.998418 15 3306ft 149kts
07-Feb-20 23:13 33.130442 -116.996286 323 3300ft 143kts
07-Feb-20 23:14 33.152727 -117.035334 302 3308ft 142kts
07-Feb-20 23:15 33.160691 -117.080487 260 3306ft 142kts
07-Feb-20 23:16 33.150570 -117.126010 261 3145ft 145kts
07-Feb-20 23:17 33.144563 -117.174255 255 2399ft 146kts
07-Feb-20 23:18 33.136945 -117.225269 262 1340ft 142kts
07-Feb-20 23:19 33.130621 -117.266189 265 541ft 100kts
07-Feb-20 23:20 33.127869 -117.282139 275 335ft 3kts

Navigation Log

Ident Type
Flight plan parsing failed, navigation log unavailable